Time;durP1;ratioP1;P1;durP2;ratioP2;P2;SDS_P1;SDS_P2;PMS_P1;PMS_P2;Temp;Humidity;BMP_temperature;BMP_pressure;BME280_temperature;BME280_humidity;BME280_pressure;Samples;Min_cycle;Max_cycle;Signal;HPM_P1;HPM_P2
2022/10/03 00:01:57;;;;;;;10.67;10.00;;;14.20;99.90;;;;;;10417455;28;20288;-79
2022/10/03 00:07:14;;;;;;;11.07;9.97;;;14.30;99.90;;;;;;10379753;28;20717;-77
2022/10/03 00:12:34;;;;;;;11.07;10.10;;;14.30;99.90;;;;;;10413597;28;20248;-78
2022/10/03 00:17:45;;;;;;;13.03;12.00;;;14.30;99.90;;;;;;10413804;28;20213;-78
2022/10/03 00:22:56;;;;;;;13.53;11.87;;;14.30;99.90;;;;;;10414620;28;20682;-77
2022/10/03 00:28:12;;;;;;;12.97;12.17;;;14.30;99.90;;;;;;10396541;28;20304;-78
2022/10/03 00:33:22;;;;;;;13.73;12.73;;;14.30;99.90;;;;;;10396893;28;20701;-78
2022/10/03 00:38:44;;;;;;;13.03;12.03;;;14.30;99.90;;;;;;10397198;28;20222;-77
2022/10/03 00:44:21;;;;;;;13.90;13.00;;;14.30;99.90;;;;;;10415528;28;20205;-77
2022/10/03 00:49:58;;;;;;;14.00;12.80;;;14.30;99.90;;;;;;10414444;28;20701;-77
2022/10/03 00:55:14;;;;;;;16.27;15.03;;;14.30;99.90;;;;;;10392768;28;20568;-77
2022/10/03 01:00:20;;;;;;;16.37;15.07;;;14.30;99.90;;;;;;10409801;28;20202;-78
2022/10/03 01:05:34;;;;;;;14.73;13.63;;;14.30;99.90;;;;;;10395580;28;20217;-77
2022/10/03 01:10:46;;;;;;;15.53;14.50;;;14.40;99.90;;;;;;10395658;28;20210;-78
2022/10/03 01:15:55;;;;;;;14.93;13.83;;;14.40;99.90;;;;;;10411283;28;20242;-78
2022/10/03 01:21:06;;;;;;;16.50;15.10;;;14.40;99.90;;;;;;10414415;28;20193;-78
2022/10/03 01:26:24;;;;;;;17.13;15.67;;;14.40;99.90;;;;;;10416355;28;20297;-77
2022/10/03 01:31:34;;;;;;;16.23;14.77;;;14.40;99.90;;;;;;10413450;28;20598;-78
2022/10/03 01:36:44;;;;;;;16.60;15.20;;;14.40;99.90;;;;;;10413350;28;20218;-78
2022/10/03 01:41:51;;;;;;;16.00;14.70;;;14.40;99.90;;;;;;10398657;28;20304;-78
2022/10/03 01:47:12;;;;;;;16.27;14.77;;;14.40;99.90;;;;;;10413701;28;20305;-78
2022/10/03 01:52:23;;;;;;;17.47;15.87;;;14.30;99.90;;;;;;10403525;28;20296;-78
2022/10/03 01:57:34;;;;;;;17.80;16.47;;;14.30;99.90;;;;;;10413418;28;20214;-78
2022/10/03 02:02:43;;;;;;;18.57;16.97;;;14.30;99.90;;;;;;10387182;28;20190;-78
2022/10/03 02:07:53;;;;;;;18.60;16.80;;;14.40;99.90;;;;;;10411618;28;20225;-78
2022/10/03 02:13:05;;;;;;;19.47;17.80;;;14.40;99.90;;;;;;10380288;28;20217;-78
2022/10/03 02:18:15;;;;;;;18.17;16.67;;;14.40;99.90;;;;;;10370895;28;20622;-78
2022/10/03 02:23:36;;;;;;;19.67;18.17;;;14.40;99.90;;;;;;10408236;28;20259;-77
2022/10/03 02:29:07;;;;;;;17.53;16.03;;;14.40;99.90;;;;;;10411163;28;20221;-78
2022/10/03 02:34:44;;;;;;;17.10;15.70;;;14.40;99.90;;;;;;10371812;28;20286;-78
2022/10/03 02:40:18;;;;;;;17.30;15.67;;;14.40;99.90;;;;;;10411521;28;20651;-78
2022/10/03 02:46:00;;;;;;;17.50;16.00;;;14.30;99.90;;;;;;10411470;28;20698;-78
2022/10/03 02:51:32;;;;;;;17.10;15.37;;;14.30;99.90;;;;;;10411208;28;20267;-78
2022/10/03 02:57:22;;;;;;;18.73;16.90;;;14.30;99.90;;;;;;10376609;28;20224;-77
2022/10/03 03:03:03;;;;;;;17.70;16.30;;;14.30;99.90;;;;;;10409993;28;20566;-78
2022/10/03 03:08:32;;;;;;;19.97;18.10;;;14.30;99.90;;;;;;10413325;28;20214;-78
2022/10/03 03:13:58;;;;;;;21.53;19.57;;;14.30;99.90;;;;;;10410935;28;20739;-77
2022/10/03 03:19:14;;;;;;;18.63;17.07;;;14.20;99.90;;;;;;10410040;28;20194;-78
2022/10/03 03:24:36;;;;;;;17.80;16.30;;;14.20;99.90;;;;;;10414565;28;20320;-78
2022/10/03 03:29:44;;;;;;;18.67;16.93;;;14.10;99.90;;;;;;10412517;28;20209;-78
2022/10/03 03:34:58;;;;;;;17.23;15.83;;;14.10;99.90;;;;;;10394695;28;20206;-78
2022/10/03 03:40:17;;;;;;;17.13;15.83;;;14.00;99.90;;;;;;10394687;28;20229;-78
2022/10/03 03:45:35;;;;;;;16.87;15.40;;;14.00;99.90;;;;;;10353342;28;20639;-78
2022/10/03 03:50:47;;;;;;;15.77;14.37;;;14.00;99.90;;;;;;10371573;28;20256;-78
2022/10/03 03:56:08;;;;;;;15.97;14.70;;;14.00;99.90;;;;;;10356335;28;20214;-78
2022/10/03 04:01:34;;;;;;;16.37;14.73;;;13.90;99.90;;;;;;10410649;28;20213;-78
2022/10/03 04:06:47;;;;;;;19.90;15.33;;;13.90;99.90;;;;;;10411119;28;20221;-78
2022/10/03 04:11:59;;;;;;;15.60;14.43;;;13.90;99.90;;;;;;10411468;28;20221;-78
2022/10/03 04:23:00;;;;;;;14.80;13.60;;;13.80;99.90;;;;;;10349070;28;20272;-78
2022/10/03 04:28:26;;;;;;;13.53;12.33;;;13.70;99.90;;;;;;10400219;28;20240;-78
2022/10/03 04:33:40;;;;;;;13.57;12.53;;;13.70;99.90;;;;;;10418897;28;20226;-78
2022/10/03 04:38:53;;;;;;;19.30;12.97;;;13.70;99.90;;;;;;10418601;28;20205;-79
2022/10/03 04:44:04;;;;;;;14.93;13.73;;;13.70;99.90;;;;;;10416376;28;20297;-78
2022/10/03 04:49:18;;;;;;;13.67;12.57;;;13.70;99.90;;;;;;10399457;28;20269;-79
2022/10/03 04:54:30;;;;;;;14.23;13.03;;;13.70;99.90;;;;;;10416300;28;20221;-78
2022/10/03 04:59:41;;;;;;;14.60;13.40;;;13.70;99.90;;;;;;10417666;28;20198;-79
2022/10/03 05:04:59;;;;;;;16.87;15.10;;;13.70;99.90;;;;;;10418455;28;20214;-78
2022/10/03 05:10:16;;;;;;;17.77;16.30;;;13.80;99.90;;;;;;10419898;28;20213;-78
2022/10/03 05:15:25;;;;;;;16.53;15.23;;;13.80;99.90;;;;;;10415613;28;20239;-78
2022/10/03 05:20:46;;;;;;;16.40;14.90;;;13.80;99.90;;;;;;10415339;28;20278;-78
2022/10/03 05:25:58;;;;;;;14.67;13.37;;;13.90;99.90;;;;;;10414656;28;20235;-77
2022/10/03 05:31:14;;;;;;;17.00;15.50;;;13.90;99.90;;;;;;10413650;28;20252;-78
2022/10/03 05:36:30;;;;;;;16.50;14.83;;;13.90;99.90;;;;;;10407127;28;20221;-78
2022/10/03 05:41:35;;;;;;;22.33;15.33;;;14.00;99.90;;;;;;10401389;28;20646;-78
2022/10/03 05:46:51;;;;;;;18.00;16.30;;;14.00;99.90;;;;;;10414036;28;20708;-78
2022/10/03 05:52:18;;;;;;;16.90;15.50;;;14.00;99.90;;;;;;10413711;28;20304;-78
2022/10/03 05:57:51;;;;;;;17.30;15.63;;;14.00;99.90;;;;;;10414406;28;20218;-78
2022/10/03 06:03:26;;;;;;;19.93;18.07;;;14.10;99.90;;;;;;10376938;28;20591;-78
2022/10/03 06:08:52;;;;;;;21.13;18.90;;;14.00;99.90;;;;;;10414911;28;20222;-78
2022/10/03 06:14:34;;;;;;;17.17;15.53;;;14.00;99.90;;;;;;10414329;28;20307;-78
2022/10/03 06:19:49;;;;;;;24.00;21.53;;;14.00;99.90;;;;;;10359980;28;20328;-78
2022/10/03 06:25:28;;;;;;;24.30;21.30;;;14.00;99.90;;;;;;10389004;28;20284;-78
2022/10/03 06:30:52;;;;;;;25.43;22.73;;;14.10;99.90;;;;;;10410217;28;20222;-78
2022/10/03 06:36:22;;;;;;;23.87;21.37;;;14.10;99.90;;;;;;10415034;28;20596;-78
2022/10/03 06:42:14;;;;;;;27.77;21.90;;;14.10;99.90;;;;;;10396543;28;20194;-78
2022/10/03 06:47:37;;;;;;;23.43;20.90;;;14.10;99.90;;;;;;10415391;28;20213;-78
2022/10/03 06:53:08;;;;;;;22.40;19.63;;;14.20;99.90;;;;;;10413392;28;20221;-78
2022/10/03 06:58:48;;;;;;;22.27;19.90;;;14.30;99.90;;;;;;10409709;28;20214;-78
2022/10/03 07:04:06;;;;;;;21.07;19.10;;;14.30;99.90;;;;;;10413202;28;20256;-79
2022/10/03 07:09:46;;;;;;;21.97;19.43;;;14.30;99.90;;;;;;10412820;28;20185;-79
2022/10/03 07:15:31;;;;;;;20.10;18.10;;;14.30;99.90;;;;;;10413643;28;20228;-78
2022/10/03 07:21:00;;;;;;;21.67;19.37;;;14.40;99.90;;;;;;10336413;28;20198;-77
2022/10/03 07:26:39;;;;;;;20.90;18.70;;;14.40;99.90;;;;;;10411300;28;20228;-77
2022/10/03 07:32:06;;;;;;;22.63;19.93;;;14.50;99.90;;;;;;10369891;28;20309;-78
2022/10/03 07:43:22;;;;;;;27.60;21.60;;;14.50;99.90;;;;;;10410744;28;20193;-77
2022/10/03 07:48:48;;;;;;;24.53;20.30;;;14.50;99.90;;;;;;10394705;28;20663;-78
2022/10/03 07:54:37;;;;;;;23.70;19.60;;;14.50;99.90;;;;;;10413423;28;20244;-77
2022/10/03 08:00:09;;;;;;;21.73;18.87;;;14.50;99.90;;;;;;10297956;28;20197;-76
2022/10/03 08:06:07;;;;;;;22.87;19.83;;;14.60;99.90;;;;;;10416517;28;20210;-77
2022/10/03 08:11:40;;;;;;;20.70;18.50;;;14.70;99.90;;;;;;10374081;28;20221;-77
2022/10/03 08:17:25;;;;;;;19.37;16.67;;;14.80;99.90;;;;;;10413829;28;20222;-78
2022/10/03 08:22:43;;;;;;;21.13;17.07;;;14.80;99.90;;;;;;10246509;29;20192;-77
2022/10/03 08:28:01;;;;;;;19.37;17.37;;;14.90;99.90;;;;;;10366752;28;20332;-77
2022/10/03 08:33:25;;;;;;;19.97;17.20;;;15.00;99.90;;;;;;10397777;28;20236;-77
2022/10/03 08:38:50;;;;;;;18.53;14.90;;;15.00;99.90;;;;;;10417067;28;20275;-77
2022/10/03 08:44:28;;;;;;;19.37;15.57;;;15.00;99.90;;;;;;10401500;28;20273;-77
2022/10/03 08:49:56;;;;;;;19.10;15.83;;;14.90;99.90;;;;;;10382248;28;20216;-77
2022/10/03 08:55:25;;;;;;;15.90;14.50;;;14.90;99.90;;;;;;10395774;28;20603;-77
2022/10/03 09:00:41;;;;;;;17.17;14.77;;;14.90;99.90;;;;;;10410541;28;20200;-77
2022/10/03 09:06:23;;;;;;;15.60;12.50;;;14.90;99.90;;;;;;10381825;28;20673;-77
2022/10/03 09:11:53;;;;;;;14.40;12.10;;;14.90;99.90;;;;;;10417678;28;20572;-77
2022/10/03 09:17:24;;;;;;;12.73;11.20;;;15.00;99.90;;;;;;10370847;28;20221;-77
2022/10/03 09:23:02;;;;;;;12.20;10.90;;;15.20;99.90;;;;;;10416785;28;20186;-78
2022/10/03 09:28:30;;;;;;;11.43;10.20;;;15.40;99.90;;;;;;10397890;28;20222;-78
2022/10/03 09:34:07;;;;;;;12.07;10.90;;;15.60;99.90;;;;;;10415023;28;20222;-77
2022/10/03 09:39:52;;;;;;;10.80;9.80;;;15.80;99.90;;;;;;10395475;28;20194;-77
2022/10/03 09:45:14;;;;;;;9.93;8.93;;;16.00;99.90;;;;;;10308263;28;20318;-78
2022/10/03 09:51:01;;;;;;;12.43;9.53;;;16.10;99.90;;;;;;10384378;28;20197;-77
2022/10/03 09:56:43;;;;;;;12.30;8.80;;;16.20;99.90;;;;;;10417703;28;20329;-77
2022/10/03 10:01:51;;;;;;;9.70;8.80;;;16.20;99.90;;;;;;10423627;28;20189;-77
2022/10/03 10:07:22;;;;;;;13.97;9.70;;;16.20;99.90;;;;;;10415907;28;20218;-77
2022/10/03 10:13:01;;;;;;;8.97;8.17;;;16.20;99.90;;;;;;10398687;28;20218;-77
2022/10/03 10:18:46;;;;;;;9.40;8.40;;;16.20;99.90;;;;;;10397258;28;20217;-78
2022/10/03 10:24:02;;;;;;;9.00;7.90;;;16.30;99.90;;;;;;10431821;28;20672;-78
2022/10/03 10:29:28;;;;;;;8.20;7.40;;;16.40;99.90;;;;;;10382114;28;20208;-77
2022/10/03 10:35:04;;;;;;;8.07;7.37;;;16.50;99.90;;;;;;10418529;28;20217;-78
2022/10/03 10:40:56;;;;;;;10.47;7.30;;;16.70;99.90;;;;;;10422569;28;20204;-79
2022/10/03 10:46:30;;;;;;;8.00;7.20;;;16.80;99.90;;;;;;10419519;28;20277;-79
2022/10/03 10:51:56;;;;;;;7.60;6.90;;;16.80;99.90;;;;;;10416262;28;20223;-78
2022/10/03 10:57:09;;;;;;;8.50;7.37;;;16.80;99.90;;;;;;10393440;28;20221;-77
2022/10/03 11:02:55;;;;;;;8.67;7.50;;;16.80;99.90;;;;;;10392462;28;20193;-78
2022/10/03 11:08:42;;;;;;;7.27;6.77;;;16.80;99.90;;;;;;10383828;28;20217;-77
2022/10/03 11:14:23;;;;;;;11.30;7.37;;;16.80;99.90;;;;;;10409434;28;20668;-78
2022/10/03 11:19:50;;;;;;;9.23;6.43;;;16.80;99.90;;;;;;10403251;28;20210;-78
2022/10/03 11:25:49;;;;;;;10.20;8.30;;;16.80;99.90;;;;;;10413218;28;20229;-77
2022/10/03 11:31:26;;;;;;;11.20;8.57;;;16.80;99.90;;;;;;10422614;28;20692;-78
2022/10/03 11:37:07;;;;;;;10.80;9.70;;;16.80;99.90;;;;;;10423716;28;20686;-77
2022/10/03 11:42:21;;;;;;;8.93;8.07;;;17.00;99.90;;;;;;10387555;28;20225;-78
2022/10/03 11:47:45;;;;;;;7.13;6.43;;;17.10;99.90;;;;;;10420760;28;20213;-78
2022/10/03 11:53:05;;;;;;;6.93;6.27;;;17.10;99.90;;;;;;10426297;28;20260;-78
2022/10/03 11:58:25;;;;;;;6.60;5.53;;;17.10;99.90;;;;;;10418760;28;20213;-78
2022/10/03 12:03:33;;;;;;;7.10;6.40;;;17.00;99.90;;;;;;10392847;28;20205;-77
2022/10/03 12:08:54;;;;;;;7.23;6.53;;;16.80;99.90;;;;;;10428968;28;20210;-78
2022/10/03 12:14:19;;;;;;;7.33;5.77;;;16.80;99.90;;;;;;10414480;28;20256;-77
2022/10/03 12:19:29;;;;;;;6.43;5.20;;;16.70;99.90;;;;;;10416592;28;20244;-77
2022/10/03 12:24:34;;;;;;;6.50;5.07;;;16.60;99.90;;;;;;10401179;28;20244;-78
2022/10/03 12:29:44;;;;;;;6.80;5.30;;;16.50;99.90;;;;;;10424554;28;20202;-78
2022/10/03 12:34:56;;;;;;;6.10;4.93;;;16.40;99.90;;;;;;10406349;28;20680;-79
2022/10/03 12:40:05;;;;;;;8.13;5.17;;;16.50;99.90;;;;;;10424179;28;20229;-78
2022/10/03 12:45:16;;;;;;;8.83;5.70;;;16.40;99.90;;;;;;10385367;28;20221;-78
2022/10/03 12:50:37;;;;;;;6.67;5.63;;;16.50;99.90;;;;;;10398840;28;20548;-77
2022/10/03 12:55:48;;;;;;;7.13;5.90;;;16.40;99.90;;;;;;10414544;28;20785;-77
2022/10/03 13:00:58;;;;;;;9.37;7.50;;;16.30;99.90;;;;;;10394904;28;20208;-78
2022/10/03 13:06:40;;;;;;;6.97;6.27;;;16.30;99.90;;;;;;10413988;28;20209;-77
2022/10/03 13:11:53;;;;;;;7.27;5.67;;;16.20;99.90;;;;;;10235765;29;20211;-78
2022/10/03 13:17:04;;;;;;;6.97;5.90;;;16.00;99.90;;;;;;10373378;28;20229;-78
2022/10/03 13:22:24;;;;;;;5.87;5.37;;;16.00;99.90;;;;;;10416690;28;20882;-78
2022/10/03 13:27:36;;;;;;;5.80;5.30;;;16.10;99.90;;;;;;10414900;28;20615;-77
2022/10/03 13:32:42;;;;;;;6.47;5.83;;;16.10;99.90;;;;;;10413841;28;20292;-77
2022/10/03 13:38:11;;;;;;;6.50;5.90;;;16.10;99.90;;;;;;10395890;28;20226;-78
2022/10/03 13:43:18;;;;;;;5.40;4.90;;;16.00;99.90;;;;;;10413863;28;20190;-78
2022/10/03 13:48:23;;;;;;;7.00;5.20;;;16.00;99.90;;;;;;10395344;28;20225;-77
2022/10/03 13:53:50;;;;;;;5.97;4.97;;;15.90;99.90;;;;;;10387824;28;20220;-78
2022/10/03 13:58:58;;;;;;;5.43;4.43;;;15.80;99.90;;;;;;10407898;28;20193;-78
2022/10/03 14:04:30;;;;;;;6.40;5.90;;;15.70;99.90;;;;;;10401085;28;20305;-78
2022/10/03 14:09:43;;;;;;;8.97;5.90;;;15.70;99.90;;;;;;10414485;28;20216;-78
2022/10/03 14:15:12;;;;;;;7.00;6.33;;;15.70;99.90;;;;;;10387749;28;20222;-79
2022/10/03 14:20:24;;;;;;;5.87;5.37;;;15.80;99.90;;;;;;10415155;28;20232;-78
2022/10/03 14:25:34;;;;;;;6.60;5.83;;;15.90;99.90;;;;;;10401955;28;20226;-79
2022/10/03 14:30:47;;;;;;;5.90;5.30;;;16.00;99.90;;;;;;10403215;28;20196;-78
2022/10/03 14:36:01;;;;;;;7.50;6.70;;;16.00;99.90;;;;;;10404010;28;20227;-79
2022/10/03 14:41:06;;;;;;;6.03;5.53;;;16.10;99.90;;;;;;10383398;28;20308;-79
2022/10/03 14:46:10;;;;;;;6.97;5.40;;;16.10;99.90;;;;;;10392784;28;20690;-79
2022/10/03 14:51:18;;;;;;;5.77;5.47;;;16.20;99.90;;;;;;10377767;28;20244;-79
2022/10/03 14:56:23;;;;;;;6.87;6.37;;;16.30;99.90;;;;;;10372727;28;20218;-78
2022/10/03 15:01:27;;;;;;;6.23;5.73;;;16.40;99.90;;;;;;10352346;28;20272;-78
2022/10/03 15:06:52;;;;;;;6.83;6.10;;;16.50;99.90;;;;;;10392062;28;20292;-77
2022/10/03 15:12:03;;;;;;;6.97;6.37;;;16.60;99.90;;;;;;10353982;28;20666;-77
2022/10/03 15:17:17;;;;;;;6.20;5.80;;;16.60;99.90;;;;;;10391426;28;20354;-78
2022/10/03 15:22:32;;;;;;;6.30;5.80;;;16.60;99.90;;;;;;10409645;28;20611;-78
2022/10/03 15:27:39;;;;;;;6.03;5.53;;;16.50;99.90;;;;;;10409448;28;20297;-77
2022/10/03 15:32:46;;;;;;;5.80;5.23;;;16.60;99.90;;;;;;10391767;28;20244;-77
2022/10/03 15:37:48;;;;;;;5.80;5.40;;;16.60;99.90;;;;;;10391113;28;20221;-78
2022/10/03 15:43:03;;;;;;;5.63;5.33;;;16.70;99.90;;;;;;10409514;28;20663;-78
2022/10/03 15:48:11;;;;;;;5.60;5.10;;;16.60;99.90;;;;;;10408108;28;20209;-78
2022/10/03 15:53:20;;;;;;;7.07;6.37;;;16.60;99.90;;;;;;10391693;28;20206;-78
2022/10/03 15:58:31;;;;;;;5.90;5.23;;;16.50;99.90;;;;;;10408930;28;20210;-78
2022/10/03 16:03:41;;;;;;;6.20;5.70;;;16.40;99.90;;;;;;10390870;28;20557;-78
2022/10/03 16:08:56;;;;;;;6.40;5.80;;;16.40;99.90;;;;;;10408064;28;20198;-78
2022/10/03 16:14:12;;;;;;;5.87;5.57;;;16.20;99.90;;;;;;10408586;28;20632;-78
2022/10/03 16:19:27;;;;;;;6.03;5.50;;;16.20;99.90;;;;;;10408436;28;20251;-78
2022/10/03 16:24:34;;;;;;;7.70;6.50;;;16.10;99.90;;;;;;10413688;28;20236;-78
2022/10/03 16:29:43;;;;;;;6.80;6.30;;;16.10;99.90;;;;;;10415424;28;20221;-78
2022/10/03 16:34:47;;;;;;;7.57;6.10;;;15.90;99.90;;;;;;10397791;28;20218;-78
2022/10/03 16:39:57;;;;;;;7.20;6.50;;;15.90;99.90;;;;;;10396414;28;20205;-76
2022/10/03 16:45:01;;;;;;;9.53;8.53;;;15.80;99.90;;;;;;10397030;28;20278;-78
2022/10/03 16:50:27;;;;;;;10.40;9.10;;;15.70;99.90;;;;;;10413930;28;20700;-77
2022/10/03 16:55:34;;;;;;;10.87;8.50;;;15.50;99.90;;;;;;10413686;28;20221;-78
2022/10/03 17:00:48;;;;;;;7.70;7.00;;;15.40;99.90;;;;;;10416736;28;20214;-79
2022/10/03 17:05:54;;;;;;;9.30;8.50;;;15.20;99.90;;;;;;10426189;28;20242;-78
2022/10/03 17:10:59;;;;;;;12.30;8.63;;;15.00;99.90;;;;;;10406211;28;20194;-79
2022/10/03 17:16:11;;;;;;;12.83;8.57;;;14.80;99.90;;;;;;10423465;28;20282;-78
2022/10/03 17:21:22;;;;;;;9.80;8.70;;;14.60;99.90;;;;;;10405957;28;20222;-78
2022/10/03 17:26:28;;;;;;;12.57;7.73;;;14.50;99.90;;;;;;10422562;28;20221;-78
2022/10/03 17:31:34;;;;;;;9.20;8.27;;;14.30;99.90;;;;;;10407675;28;20200;-79
2022/10/03 17:36:55;;;;;;;13.63;9.80;;;14.20;99.90;;;;;;10412521;28;20228;-78
2022/10/03 17:42:02;;;;;;;17.00;15.37;;;14.20;99.90;;;;;;10398880;28;20271;-76
2022/10/03 17:47:12;;;;;;;11.70;10.50;;;14.00;99.90;;;;;;10414398;28;20222;-78
2022/10/03 17:52:17;;;;;;;22.30;20.20;;;14.00;99.90;;;;;;10418087;28;20201;-78
2022/10/03 17:57:24;;;;;;;12.80;11.70;;;13.90;99.90;;;;;;10457395;23;20329;-79
2022/10/03 18:02:38;;;;;;;8.57;7.87;;;13.80;99.90;;;;;;10376249;28;20186;-79
2022/10/03 18:13:40;;;;;;;9.17;8.37;;;13.70;99.90;;;;;;10389325;28;20218;-79
2022/10/03 18:19:08;;;;;;;9.13;8.33;;;13.60;99.90;;;;;;10403704;28;20223;-79
2022/10/03 18:24:40;;;;;;;10.90;8.00;;;13.60;99.90;;;;;;10443549;28;20243;-79
2022/10/03 18:30:04;;;;;;;9.30;8.40;;;13.50;99.90;;;;;;10447091;28;20394;-79
2022/10/03 18:35:16;;;;;;;12.30;8.10;;;13.40;99.90;;;;;;10379085;28;20241;-79
2022/10/03 18:40:20;;;;;;;7.47;6.77;;;13.40;99.90;;;;;;10459917;28;20207;-79
2022/10/03 18:45:27;;;;;;;9.63;8.73;;;13.30;99.90;;;;;;10457792;28;20213;-79
2022/10/03 18:50:39;;;;;;;24.80;20.60;;;13.30;99.90;;;;;;10443447;28;20564;-79
2022/10/03 18:55:45;;;;;;;18.77;15.63;;;13.20;99.90;;;;;;10438622;28;20303;-79
2022/10/03 19:00:53;;;;;;;10.60;9.03;;;13.20;99.90;;;;;;10425598;28;20224;-79
2022/10/03 19:06:03;;;;;;;9.87;8.97;;;13.20;99.90;;;;;;10441728;28;20213;-79
2022/10/03 19:11:17;;;;;;;12.30;8.63;;;13.10;99.90;;;;;;10442683;28;20224;-79
2022/10/03 19:16:39;;;;;;;10.23;9.17;;;13.10;99.90;;;;;;10441540;28;20632;-79
2022/10/03 19:21:43;;;;;;;14.23;10.37;;;13.00;99.90;;;;;;10451682;28;20197;-79
2022/10/03 19:26:51;;;;;;;11.80;10.30;;;13.00;99.90;;;;;;10451727;28;20251;-78
2022/10/03 19:32:02;;;;;;;12.80;11.43;;;13.00;99.90;;;;;;10450913;28;20216;-80
2022/10/03 19:37:12;;;;;;;15.90;9.90;;;12.90;99.90;;;;;;10452300;28;20263;-79
2022/10/03 19:42:26;;;;;;;13.17;11.10;;;12.90;99.90;;;;;;10442067;28;20189;-79
2022/10/03 19:47:32;;;;;;;11.13;10.00;;;12.90;99.90;;;;;;10424540;28;20221;-79
2022/10/03 19:52:40;;;;;;;11.20;10.10;;;12.90;99.90;;;;;;10424453;28;20308;-78
2022/10/03 19:57:48;;;;;;;10.07;8.87;;;12.80;99.90;;;;;;10457844;28;20224;-79
2022/10/03 20:02:56;;;;;;;11.37;9.70;;;12.80;99.90;;;;;;10460481;28;20190;-80
2022/10/03 20:08:12;;;;;;;9.07;8.37;;;12.70;99.90;;;;;;10440820;28;20231;-79
2022/10/03 20:13:15;;;;;;;11.73;9.23;;;12.60;99.90;;;;;;10458714;28;20213;-79
2022/10/03 20:18:23;;;;;;;10.63;8.57;;;12.50;99.90;;;;;;10436695;28;20223;-79
2022/10/03 20:23:29;;;;;;;11.77;10.67;;;12.50;99.90;;;;;;10425844;28;20573;-80
2022/10/03 20:29:05;;;;;;;12.40;11.20;;;12.50;99.90;;;;;;10443044;28;20296;-79
2022/10/03 20:34:16;;;;;;;22.53;17.10;;;12.50;99.90;;;;;;10427509;28;20227;-80
2022/10/03 20:39:22;;;;;;;18.40;16.37;;;12.40;99.90;;;;;;10461749;28;20264;-80
2022/10/03 20:44:54;;;;;;;14.13;12.03;;;12.40;99.90;;;;;;10443762;28;20197;-80
2022/10/03 20:50:01;;;;;;;9.97;9.00;;;12.40;99.90;;;;;;10458880;28;20248;-80
2022/10/03 20:55:33;;;;;;;9.87;8.17;;;12.30;99.90;;;;;;10444189;28;20252;-80
2022/10/03 21:00:48;;;;;;;11.77;8.57;;;12.30;99.90;;;;;;10468360;28;20273;-79
2022/10/03 21:05:53;;;;;;;9.23;8.33;;;12.30;99.90;;;;;;10445085;28;20212;-80
2022/10/03 21:11:01;;;;;;;10.43;9.53;;;12.30;99.90;;;;;;10459330;28;20220;-79
2022/10/03 21:16:05;;;;;;;11.70;9.30;;;;;;;;;;10418182;28;20237;-80
2022/10/03 21:21:09;;;;;;;11.33;9.13;;;;;;;;;;10422954;28;20209;-80
2022/10/03 21:26:13;;;;;;;21.80;15.03;;;;;;;;;;10423595;28;20301;-80
2022/10/03 21:31:30;;;;;;;32.37;18.50;;;;;;;;;;10423827;28;20205;-79
2022/10/03 21:36:54;;;;;;;67.20;23.40;;;;;;;;;;10426143;28;20221;-79
2022/10/03 21:42:05;;;;;;;29.43;16.70;;;;;;;;;;10423709;28;20197;-79
2022/10/03 21:47:11;;;;;;;13.43;10.17;;;;;;;;;;10463130;28;20244;-80
2022/10/03 21:52:42;;;;;;;13.77;12.20;;;;;;;;;;10442553;28;20259;-80
2022/10/03 21:57:52;;;;;;;14.30;11.50;;;;;;;;;;10399845;28;20225;-80
2022/10/03 22:03:00;;;;;;;13.53;11.07;;;;;;;;;;10463414;28;20185;-80
2022/10/03 22:08:13;;;;;;;17.27;10.97;;;;;;;;;;10463220;28;20239;-80
2022/10/03 22:13:18;;;;;;;14.43;11.17;;;;;;;;;;10461456;28;20292;-80
2022/10/03 22:18:25;;;;;;;13.27;11.60;;;;;;;;;;10445171;28;20221;-80
2022/10/03 22:23:32;;;;;;;10.73;9.73;;;;;;;;;;10434075;28;20600;-80
2022/10/03 22:28:42;;;;;;;10.60;9.57;;;;;;;;;;10443507;28;20241;-80
2022/10/03 22:33:49;;;;;;;10.20;9.10;;;;;;;;;;10445786;28;20228;-79
2022/10/03 22:38:52;;;;;;;12.03;10.93;;;;;;;;;;10428106;28;20248;-80
2022/10/03 22:43:58;;;;;;;12.97;11.77;;;;;;;;;;10464452;28;20178;-80
2022/10/03 22:49:03;;;;;;;11.27;10.23;;;;;;;;;;10461770;28;20245;-80
2022/10/03 22:54:09;;;;;;;11.20;10.20;;;;;;;;;;10436804;28;20288;-79
2022/10/03 22:59:14;;;;;;;8.77;7.90;;;;;;;;;;10457966;28;20245;-79
2022/10/03 23:04:20;;;;;;;11.30;10.20;;;;;;;;;;10439761;28;20757;-80
2022/10/03 23:09:24;;;;;;;12.83;11.70;;;;;;;;;;10462403;28;20217;-80
2022/10/03 23:14:30;;;;;;;11.77;10.77;;;;;;;;;;10463629;28;20219;-80
2022/10/03 23:19:39;;;;;;;11.50;10.40;;;;;;;;;;10456778;28;20308;-80
2022/10/03 23:24:43;;;;;;;12.30;11.17;;;;;;;;;;10440778;28;20229;-79
2022/10/03 23:29:52;;;;;;;11.20;10.30;;;;;;;;;;10400216;28;20222;-79
2022/10/03 23:35:16;;;;;;;12.17;11.17;;;;;;;;;;10407490;28;20222;-79
2022/10/03 23:40:39;;;;;;;12.23;11.20;;;;;;;;;;10413576;28;20185;-79
2022/10/03 23:45:43;;;;;;;13.27;11.90;;;;;;;;;;10462189;28;20680;-80
2022/10/03 23:50:49;;;;;;;12.83;11.53;;;;;;;;;;10468797;28;20197;-79
2022/10/03 23:55:52;;;;;;;13.27;11.97;;;;;;;;;;10494032;23;20267;-81
